Ana Sayfa
METAR-TAF:

METAR-TAF

Havaalanları :

Suceava, Romanya

Enlem: 47-39N, Boylam: 026-15E, yükseklik: 351 m

Güncel hava durumu gözlemi

Rapor saat 15:00 UTC de 44 dakika önce yapıldı.
Rüzgar doğu/güneydoğudan 3 kt, doğu ve güney/güneydoğu arasında değişken
Sıcaklık 5°C
Nem 60%
Basınç 1007 hPa
Görüş mesafesi 10 km veya daha fazla
4500 ft yükseklikte az bulutlu

METAR: LRSV 281500Z 11003KT 090V150 9999 FEW045 05/M02 Q1007 R16/19//95

Saat: 17:44 (15:44 UTC)

Tahmin

Rapor saat 14:00 UTC de 1 saat ve 44 dakika önce yapıldı.
Ayın 28'si saat 15 UTC'den ayın 28'si saat 24 UTC'ye kadar geçerli Tahmin
Rüzgar güney/güneydoğudan 10 kt
Görüş mesafesi 10 km veya daha fazla
3500 ft yükseklikte parçalı çok bulutlu
Geçici
ayın 28'si saat 16 UTC'den ayın 28'si saat 20 UTC'ye kadar
Görüş mesafesi: 3000 m
1000 ft yükseklikte parçalı çok bulutlu
3000 ft yükseklikte çok bulutlu
yağmur, kar

TAF: LRSV 281400Z 2815/2824 16010KT 9999 BKN035 TEMPO 2816/2820 3000 RASN BKN010 OVC030

4.000'den fazla havaalanı için hava durumu gözlemleri ve tahminleri (METAR ve TAF raporları).

Kullanılabilir istasyonlar harita üzerinde sarı ve kırmızı noktalarla gösterilir.

İstasyonun adını görmek için fareyi noktanın üzerinde gezdirin.

Sonrasında hava gözlem ve tahminlerini görmek için tıklayın.

Haritayı değiştirmek için: yaklaştırmak için siyah artı işaretli yeşil düğmeye ve uzaklaştırmak için de eksi işaretli düğmeye hızla tıklayın; bitişik haritalar için yeşil okları kullanın.


METAR-TAF: